sensor_id;sensor_type;location;lat;lon;timestamp;pressure;altitude;pressure_sealevel;temperature;humidity
27958;BME280;15295;42.658;23.374;2024-02-26T00:00:32;94165.63;;;14.37;50.35
27958;BME280;15295;42.658;23.374;2024-02-26T00:03:00;94156.66;;;14.33;50.14
27958;BME280;15295;42.658;23.374;2024-02-26T00:05:26;94156.75;;;14.29;50.18
27958;BME280;15295;42.658;23.374;2024-02-26T00:10:25;94152.09;;;14.26;50.74
27958;BME280;15295;42.658;23.374;2024-02-26T00:12:51;94158.72;;;14.29;50.70
27958;BME280;15295;42.658;23.374;2024-02-26T00:15:16;94149.78;;;14.25;50.64
27958;BME280;15295;42.658;23.374;2024-02-26T00:17:42;94159.41;;;14.33;50.57
27958;BME280;15295;42.658;23.374;2024-02-26T00:20:10;94160.19;;;14.33;50.95
27958;BME280;15295;42.658;23.374;2024-02-26T00:22:36;94159.34;;;14.36;50.62
27958;BME280;15295;42.658;23.374;2024-02-26T00:25:02;94145.66;;;14.33;50.70
27958;BME280;15295;42.658;23.374;2024-02-26T00:27:28;94148.25;;;14.40;50.71
27958;BME280;15295;42.658;23.374;2024-02-26T00:29:55;94141.56;;;14.41;50.60
27958;BME280;15295;42.658;23.374;2024-02-26T00:32:20;94148.56;;;14.42;50.55
27958;BME280;15295;42.658;23.374;2024-02-26T00:34:46;94140.78;;;14.40;50.59
27958;BME280;15295;42.658;23.374;2024-02-26T00:37:11;94133.66;;;14.43;50.61
27958;BME280;15295;42.658;23.374;2024-02-26T00:39:37;94131.31;;;14.41;50.66
27958;BME280;15295;42.658;23.374;2024-02-26T00:42:02;94129.34;;;14.42;50.70
27958;BME280;15295;42.658;23.374;2024-02-26T00:44:28;94125.91;;;14.38;50.78
27958;BME280;15295;42.658;23.374;2024-02-26T00:46:53;94130.56;;;14.41;50.98
27958;BME280;15295;42.658;23.374;2024-02-26T00:49:19;94117.94;;;14.43;50.87
27958;BME280;15295;42.658;23.374;2024-02-26T00:51:44;94120.91;;;14.49;50.91
27958;BME280;15295;42.658;23.374;2024-02-26T00:54:10;94113.84;;;14.48;51.02
27958;BME280;15295;42.658;23.374;2024-02-26T00:56:37;94123.47;;;14.56;50.99
27958;BME280;15295;42.658;23.374;2024-02-26T00:59:02;94120.63;;;14.59;50.63
27958;BME280;15295;42.658;23.374;2024-02-26T01:01:28;94115.91;;;14.60;50.88
27958;BME280;15295;42.658;23.374;2024-02-26T01:03:53;94114.78;;;14.57;50.83
27958;BME280;15295;42.658;23.374;2024-02-26T01:06:19;94108.94;;;14.55;50.97
27958;BME280;15295;42.658;23.374;2024-02-26T01:08:44;94101.22;;;14.50;50.82
27958;BME280;15295;42.658;23.374;2024-02-26T01:11:10;94104.31;;;14.52;50.81
27958;BME280;15295;42.658;23.374;2024-02-26T01:13:35;94107.06;;;14.52;50.93
27958;BME280;15295;42.658;23.374;2024-02-26T01:16:01;94099.94;;;14.55;50.81
27958;BME280;15295;42.658;23.374;2024-02-26T01:18:27;94104.25;;;14.56;50.79
27958;BME280;15295;42.658;23.374;2024-02-26T01:20:53;94105.56;;;14.64;50.92
27958;BME280;15295;42.658;23.374;2024-02-26T01:23:20;94107.22;;;14.61;51.26
27958;BME280;15295;42.658;23.374;2024-02-26T01:25:45;94107.03;;;14.68;51.16
27958;BME280;15295;42.658;23.374;2024-02-26T01:28:11;94100.31;;;14.69;51.01
27958;BME280;15295;42.658;23.374;2024-02-26T01:30:37;94061.22;;;14.49;51.11
27958;BME280;15295;42.658;23.374;2024-02-26T01:33:03;94099.78;;;14.75;51.26
27958;BME280;15295;42.658;23.374;2024-02-26T01:35:29;94101.88;;;14.71;50.93
27958;BME280;15295;42.658;23.374;2024-02-26T01:37:55;94101.38;;;14.59;50.83
27958;BME280;15295;42.658;23.374;2024-02-26T01:40:21;94101.34;;;14.47;51.06
27958;BME280;15295;42.658;23.374;2024-02-26T01:42:47;94093.59;;;14.42;50.92
27958;BME280;15295;42.658;23.374;2024-02-26T01:45:16;94089.31;;;14.41;51.09
27958;BME280;15295;42.658;23.374;2024-02-26T01:47:52;94102.53;;;14.46;51.22
27958;BME280;15295;42.658;23.374;2024-02-26T01:50:18;94093.53;;;14.45;51.31
27958;BME280;15295;42.658;23.374;2024-02-26T01:52:49;94089.09;;;14.48;51.40
27958;BME280;15295;42.658;23.374;2024-02-26T01:55:17;94081.75;;;14.45;51.35
27958;BME280;15295;42.658;23.374;2024-02-26T01:57:44;94082.09;;;14.47;51.40
27958;BME280;15295;42.658;23.374;2024-02-26T02:00:11;94079.00;;;14.45;51.48
27958;BME280;15295;42.658;23.374;2024-02-26T02:02:42;94085.16;;;14.49;51.52
27958;BME280;15295;42.658;23.374;2024-02-26T02:05:12;94084.84;;;14.47;51.60
27958;BME280;15295;42.658;23.374;2024-02-26T02:07:40;94075.03;;;14.46;51.85
27958;BME280;15295;42.658;23.374;2024-02-26T02:10:06;94079.44;;;14.43;52.13
27958;BME280;15295;42.658;23.374;2024-02-26T02:12:33;94083.28;;;14.46;52.41
27958;BME280;15295;42.658;23.374;2024-02-26T02:15:00;94075.38;;;14.48;52.31
27958;BME280;15295;42.658;23.374;2024-02-26T02:17:32;94077.69;;;14.49;52.20
27958;BME280;15295;42.658;23.374;2024-02-26T02:19:57;94064.25;;;14.39;52.08
27958;BME280;15295;42.658;23.374;2024-02-26T02:22:24;94078.91;;;14.48;52.15
27958;BME280;15295;42.658;23.374;2024-02-26T02:24:52;94084.06;;;14.46;52.44
27958;BME280;15295;42.658;23.374;2024-02-26T02:27:19;94090.66;;;14.49;52.56
27958;BME280;15295;42.658;23.374;2024-02-26T02:29:44;94086.28;;;14.51;52.61
27958;BME280;15295;42.658;23.374;2024-02-26T02:32:10;94091.00;;;14.51;52.54
27958;BME280;15295;42.658;23.374;2024-02-26T02:34:36;94086.19;;;14.55;52.46
27958;BME280;15295;42.658;23.374;2024-02-26T02:37:02;94074.84;;;14.53;52.51
27958;BME280;15295;42.658;23.374;2024-02-26T02:39:27;94083.78;;;14.57;52.34
27958;BME280;15295;42.658;23.374;2024-02-26T02:41:54;94080.34;;;14.53;52.48
27958;BME280;15295;42.658;23.374;2024-02-26T02:44:19;94083.09;;;14.53;52.56
27958;BME280;15295;42.658;23.374;2024-02-26T02:46:45;94089.28;;;14.57;52.58
27958;BME280;15295;42.658;23.374;2024-02-26T02:49:10;94092.00;;;14.57;52.53
27958;BME280;15295;42.658;23.374;2024-02-26T02:51:36;94086.53;;;14.57;52.55
27958;BME280;15295;42.658;23.374;2024-02-26T02:54:02;94084.22;;;14.55;52.48
27958;BME280;15295;42.658;23.374;2024-02-26T02:56:28;94089.72;;;14.55;52.30
27958;BME280;15295;42.658;23.374;2024-02-26T02:58:53;94083.31;;;14.58;52.00
27958;BME280;15295;42.658;23.374;2024-02-26T03:01:19;94082.91;;;14.60;52.19
27958;BME280;15295;42.658;23.374;2024-02-26T03:03:45;94086.97;;;14.55;51.75
27958;BME280;15295;42.658;23.374;2024-02-26T03:06:11;94088.81;;;14.58;51.93
27958;BME280;15295;42.658;23.374;2024-02-26T03:08:36;94100.25;;;14.57;52.19
27958;BME280;15295;42.658;23.374;2024-02-26T03:11:04;94109.41;;;14.54;52.40
27958;BME280;15295;42.658;23.374;2024-02-26T03:13:30;94106.72;;;14.50;52.67
27958;BME280;15295;42.658;23.374;2024-02-26T03:15:56;94100.09;;;14.48;52.35
27958;BME280;15295;42.658;23.374;2024-02-26T03:18:22;94096.00;;;14.56;52.57
27958;BME280;15295;42.658;23.374;2024-02-26T03:20:49;94100.25;;;14.57;52.44
27958;BME280;15295;42.658;23.374;2024-02-26T03:23:14;94086.63;;;14.53;52.40
27958;BME280;15295;42.658;23.374;2024-02-26T03:25:45;94082.31;;;14.52;52.37
27958;BME280;15295;42.658;23.374;2024-02-26T03:28:13;94079.16;;;14.54;52.44
27958;BME280;15295;42.658;23.374;2024-02-26T03:30:39;94083.78;;;14.57;52.36
27958;BME280;15295;42.658;23.374;2024-02-26T03:33:04;94078.38;;;14.53;52.41
27958;BME280;15295;42.658;23.374;2024-02-26T03:35:30;94069.19;;;14.44;52.89
27958;BME280;15295;42.658;23.374;2024-02-26T03:37:56;94078.03;;;14.51;52.77
27958;BME280;15295;42.658;23.374;2024-02-26T03:40:22;94073.44;;;14.61;52.61
27958;BME280;15295;42.658;23.374;2024-02-26T03:42:50;94075.78;;;14.62;52.62
27958;BME280;15295;42.658;23.374;2024-02-26T03:45:17;94059.47;;;14.55;52.82
27958;BME280;15295;42.658;23.374;2024-02-26T03:47:43;94079.53;;;14.68;52.65
27958;BME280;15295;42.658;23.374;2024-02-26T03:50:09;94067.22;;;14.73;52.32
27958;BME280;15295;42.658;23.374;2024-02-26T03:52:34;94069.31;;;14.69;52.27
27958;BME280;15295;42.658;23.374;2024-02-26T03:55:00;94072.47;;;14.67;52.40
27958;BME280;15295;42.658;23.374;2024-02-26T03:57:25;94063.81;;;14.69;52.52
27958;BME280;15295;42.658;23.374;2024-02-26T03:59:52;94067.97;;;14.74;52.62
27958;BME280;15295;42.658;23.374;2024-02-26T04:02:18;94071.50;;;14.74;52.55
27958;BME280;15295;42.658;23.374;2024-02-26T04:04:48;94068.22;;;14.79;52.41
27958;BME280;15295;42.658;23.374;2024-02-26T04:07:14;94065.47;;;14.79;52.28
27958;BME280;15295;42.658;23.374;2024-02-26T04:09:39;94058.97;;;14.73;52.38
27958;BME280;15295;42.658;23.374;2024-02-26T04:12:05;94063.38;;;14.71;52.37
27958;BME280;15295;42.658;23.374;2024-02-26T04:14:32;94065.22;;;14.74;52.15
27958;BME280;15295;42.658;23.374;2024-02-26T04:16:57;94059.72;;;14.74;52.18
27958;BME280;15295;42.658;23.374;2024-02-26T04:19:23;94052.09;;;14.65;51.84
27958;BME280;15295;42.658;23.374;2024-02-26T04:21:48;94053.84;;;14.59;51.54
27958;BME280;15295;42.658;23.374;2024-02-26T04:24:14;94051.31;;;14.52;51.44
27958;BME280;15295;42.658;23.374;2024-02-26T04:26:39;94043.44;;;14.38;51.20
27958;BME280;15295;42.658;23.374;2024-02-26T04:29:05;94040.25;;;14.39;51.08
27958;BME280;15295;42.658;23.374;2024-02-26T04:31:30;94044.31;;;14.19;51.70
27958;BME280;15295;42.658;23.374;2024-02-26T04:33:59;94052.91;;;14.21;51.41
27958;BME280;15295;42.658;23.374;2024-02-26T04:36:24;94043.81;;;14.08;51.59
27958;BME280;15295;42.658;23.374;2024-02-26T04:38:51;94012.75;;;13.94;51.61
27958;BME280;15295;42.658;23.374;2024-02-26T04:41:17;94055.75;;;14.17;51.83
27958;BME280;15295;42.658;23.374;2024-02-26T04:43:42;94055.94;;;14.10;51.81
27958;BME280;15295;42.658;23.374;2024-02-26T04:46:08;94047.72;;;13.94;52.08
27958;BME280;15295;42.658;23.374;2024-02-26T04:48:34;94061.19;;;13.88;52.27
27958;BME280;15295;42.658;23.374;2024-02-26T04:51:01;94060.41;;;13.88;52.28
27958;BME280;15295;42.658;23.374;2024-02-26T04:53:29;94056.97;;;13.84;52.60
27958;BME280;15295;42.658;23.374;2024-02-26T04:55:54;94060.41;;;13.88;52.50
27958;BME280;15295;42.658;23.374;2024-02-26T04:58:20;94061.34;;;13.81;52.48
27958;BME280;15295;42.658;23.374;2024-02-26T05:00:45;94064.81;;;13.69;53.00
27958;BME280;15295;42.658;23.374;2024-02-26T05:03:11;94074.59;;;13.70;53.40
27958;BME280;15295;42.658;23.374;2024-02-26T05:05:42;94068.75;;;13.68;53.34
27958;BME280;15295;42.658;23.374;2024-02-26T05:08:08;94069.19;;;13.67;53.45
27958;BME280;15295;42.658;23.374;2024-02-26T05:10:34;94072.34;;;13.65;53.97
27958;BME280;15295;42.658;23.374;2024-02-26T05:12:59;94078.28;;;13.64;54.19
27958;BME280;15295;42.658;23.374;2024-02-26T05:15:26;94071.59;;;13.49;54.46
27958;BME280;15295;42.658;23.374;2024-02-26T05:17:51;94073.03;;;13.53;54.73
27958;BME280;15295;42.658;23.374;2024-02-26T05:20:18;94085.50;;;13.58;54.88
27958;BME280;15295;42.658;23.374;2024-02-26T05:22:43;94082.38;;;13.56;54.90
27958;BME280;15295;42.658;23.374;2024-02-26T05:25:09;94097.16;;;13.62;55.18
27958;BME280;15295;42.658;23.374;2024-02-26T05:27:34;94090.56;;;13.59;55.17
27958;BME280;15295;42.658;23.374;2024-02-26T05:30:00;94096.38;;;13.77;56.49
27958;BME280;15295;42.658;23.374;2024-02-26T05:32:25;94102.84;;;13.87;55.74
27958;BME280;15295;42.658;23.374;2024-02-26T05:34:53;94116.13;;;13.88;55.26
27958;BME280;15295;42.658;23.374;2024-02-26T05:37:19;94109.78;;;13.91;54.98
27958;BME280;15295;42.658;23.374;2024-02-26T05:39:44;94108.56;;;13.92;54.74
27958;BME280;15295;42.658;23.374;2024-02-26T05:42:09;94109.00;;;13.91;54.74
27958;BME280;15295;42.658;23.374;2024-02-26T05:44:49;94119.50;;;13.96;54.85
27958;BME280;15295;42.658;23.374;2024-02-26T05:47:14;94119.16;;;13.94;54.86
27958;BME280;15295;42.658;23.374;2024-02-26T05:49:40;94102.50;;;13.85;54.64
27958;BME280;15295;42.658;23.374;2024-02-26T05:52:06;94118.59;;;13.99;54.92
27958;BME280;15295;42.658;23.374;2024-02-26T05:54:31;94108.41;;;14.00;54.76
27958;BME280;15295;42.658;23.374;2024-02-26T05:56:57;94117.31;;;14.04;54.79
27958;BME280;15295;42.658;23.374;2024-02-26T05:59:23;94121.28;;;14.03;54.65
27958;BME280;15295;42.658;23.374;2024-02-26T06:01:49;94119.56;;;14.09;54.51
27958;BME280;15295;42.658;23.374;2024-02-26T06:04:14;94134.22;;;14.18;54.41
27958;BME280;15295;42.658;23.374;2024-02-26T06:06:40;94135.44;;;14.17;54.46
27958;BME280;15295;42.658;23.374;2024-02-26T06:09:05;94131.47;;;14.18;54.33
27958;BME280;15295;42.658;23.374;2024-02-26T06:11:31;94141.97;;;14.23;54.25
27958;BME280;15295;42.658;23.374;2024-02-26T06:13:56;94133.72;;;14.23;54.04
27958;BME280;15295;42.658;23.374;2024-02-26T06:16:22;94133.56;;;14.30;54.00
27958;BME280;15295;42.658;23.374;2024-02-26T06:18:47;94139.16;;;14.43;54.20
27958;BME280;15295;42.658;23.374;2024-02-26T06:21:13;94134.06;;;14.41;53.82
27958;BME280;15295;42.658;23.374;2024-02-26T06:23:39;94142.81;;;14.52;53.83
27958;BME280;15295;42.658;23.374;2024-02-26T06:26:05;94137.91;;;14.60;53.51
27958;BME280;15295;42.658;23.374;2024-02-26T06:28:31;94138.25;;;14.62;53.33
27958;BME280;15295;42.658;23.374;2024-02-26T06:30:59;94134.28;;;14.63;53.07
27958;BME280;15295;42.658;23.374;2024-02-26T06:33:24;94139.06;;;14.75;53.02
27958;BME280;15295;42.658;23.374;2024-02-26T06:35:50;94136.31;;;14.75;52.76
27958;BME280;15295;42.658;23.374;2024-02-26T06:38:15;94130.16;;;14.71;52.54
27958;BME280;15295;42.658;23.374;2024-02-26T06:40:42;94139.75;;;14.79;52.18
27958;BME280;15295;42.658;23.374;2024-02-26T06:43:08;94138.97;;;14.79;51.94
27958;BME280;15295;42.658;23.374;2024-02-26T06:45:34;94141.16;;;14.71;51.52
27958;BME280;15295;42.658;23.374;2024-02-26T06:48:00;94139.16;;;14.72;51.70
27958;BME280;15295;42.658;23.374;2024-02-26T06:50:26;94134.44;;;14.72;51.59
27958;BME280;15295;42.658;23.374;2024-02-26T06:52:51;94128.81;;;14.76;51.41
27958;BME280;15295;42.658;23.374;2024-02-26T06:55:17;94134.69;;;14.78;51.33
27958;BME280;15295;42.658;23.374;2024-02-26T06:57:42;94140.09;;;14.81;51.27
27958;BME280;15295;42.658;23.374;2024-02-26T07:00:08;94138.53;;;14.80;51.30
27958;BME280;15295;42.658;23.374;2024-02-26T07:02:34;94149.00;;;14.85;51.43
27958;BME280;15295;42.658;23.374;2024-02-26T07:05:00;94148.34;;;14.81;51.64
27958;BME280;15295;42.658;23.374;2024-02-26T07:07:26;94138.88;;;14.82;51.32
27958;BME280;15295;42.658;23.374;2024-02-26T07:09:51;94141.88;;;14.88;51.42
27958;BME280;15295;42.658;23.374;2024-02-26T07:12:17;94138.13;;;14.82;51.47
27958;BME280;15295;42.658;23.374;2024-02-26T07:14:42;94154.00;;;14.90;51.52
27958;BME280;15295;42.658;23.374;2024-02-26T07:17:08;94154.66;;;14.94;51.74
27958;BME280;15295;42.658;23.374;2024-02-26T07:19:34;94149.34;;;14.87;51.60
27958;BME280;15295;42.658;23.374;2024-02-26T07:21:59;94155.34;;;14.98;51.47
27958;BME280;15295;42.658;23.374;2024-02-26T07:24:28;94156.34;;;15.04;51.61
27958;BME280;15295;42.658;23.374;2024-02-26T07:26:59;94151.94;;;15.07;51.18
27958;BME280;15295;42.658;23.374;2024-02-26T07:29:25;94152.72;;;15.07;51.10
27958;BME280;15295;42.658;23.374;2024-02-26T07:31:50;94157.59;;;15.16;50.69
27958;BME280;15295;42.658;23.374;2024-02-26T07:34:16;94145.13;;;15.11;50.65
27958;BME280;15295;42.658;23.374;2024-02-26T07:36:42;94158.34;;;15.16;50.42
27958;BME280;15295;42.658;23.374;2024-02-26T07:39:07;94152.38;;;15.05;50.62
27958;BME280;15295;42.658;23.374;2024-02-26T07:41:33;94140.78;;;14.98;50.36
27958;BME280;15295;42.658;23.374;2024-02-26T07:43:58;94161.53;;;15.15;50.45
27958;BME280;15295;42.658;23.374;2024-02-26T07:46:24;94164.28;;;15.15;50.69
27958;BME280;15295;42.658;23.374;2024-02-26T07:48:49;94164.44;;;15.24;50.91
27958;BME280;15295;42.658;23.374;2024-02-26T07:51:15;94164.91;;;15.35;50.36
27958;BME280;15295;42.658;23.374;2024-02-26T07:53:41;94156.97;;;15.37;50.32
27958;BME280;15295;42.658;23.374;2024-02-26T07:56:06;94163.31;;;15.50;50.14
27958;BME280;15295;42.658;23.374;2024-02-26T07:58:33;94157.34;;;15.52;50.45
27958;BME280;15295;42.658;23.374;2024-02-26T08:00:58;94161.00;;;15.61;50.13
27958;BME280;15295;42.658;23.374;2024-02-26T08:03:24;94146.88;;;15.59;50.21
27958;BME280;15295;42.658;23.374;2024-02-26T08:05:51;94151.19;;;15.60;50.67
27958;BME280;15295;42.658;23.374;2024-02-26T08:08:16;94154.28;;;15.62;50.25
27958;BME280;15295;42.658;23.374;2024-02-26T08:10:42;94146.34;;;15.77;49.42
27958;BME280;15295;42.658;23.374;2024-02-26T08:13:08;94146.59;;;15.95;49.19
27958;BME280;15295;42.658;23.374;2024-02-26T08:15:34;94142.94;;;15.98;48.81
27958;BME280;15295;42.658;23.374;2024-02-26T08:18:02;94145.34;;;15.96;48.93
27958;BME280;15295;42.658;23.374;2024-02-26T08:20:29;94134.66;;;15.98;48.43
27958;BME280;15295;42.658;23.374;2024-02-26T08:22:55;94146.56;;;16.07;48.13
27958;BME280;15295;42.658;23.374;2024-02-26T08:25:20;94149.66;;;16.22;47.88
27958;BME280;15295;42.658;23.374;2024-02-26T08:27:46;94148.50;;;16.32;47.76
27958;BME280;15295;42.658;23.374;2024-02-26T08:30:13;94140.47;;;16.38;47.69
27958;BME280;15295;42.658;23.374;2024-02-26T08:32:45;94131.94;;;16.45;47.80
27958;BME280;15295;42.658;23.374;2024-02-26T08:35:10;94153.91;;;16.61;47.54
27958;BME280;15295;42.658;23.374;2024-02-26T08:37:36;94147.16;;;16.62;46.71
27958;BME280;15295;42.658;23.374;2024-02-26T08:40:01;94137.88;;;16.68;46.61
27958;BME280;15295;42.658;23.374;2024-02-26T08:42:29;94150.16;;;16.89;46.50
27958;BME280;15295;42.658;23.374;2024-02-26T08:44:54;94147.28;;;16.58;46.07
27958;BME280;15295;42.658;23.374;2024-02-26T08:47:20;94144.34;;;16.74;45.83
27958;BME280;15295;42.658;23.374;2024-02-26T08:49:46;94146.75;;;16.85;45.97
27958;BME280;15295;42.658;23.374;2024-02-26T08:52:11;94145.16;;;16.96;45.71
27958;BME280;15295;42.658;23.374;2024-02-26T08:54:37;94145.47;;;17.20;45.48
27958;BME280;15295;42.658;23.374;2024-02-26T08:57:03;94149.09;;;17.30;45.28
27958;BME280;15295;42.658;23.374;2024-02-26T08:59:28;94159.44;;;17.38;44.86
27958;BME280;15295;42.658;23.374;2024-02-26T09:01:54;94150.13;;;17.23;45.02
27958;BME280;15295;42.658;23.374;2024-02-26T09:04:19;94141.75;;;17.36;45.24
27958;BME280;15295;42.658;23.374;2024-02-26T09:06:45;94142.47;;;17.49;44.97
27958;BME280;15295;42.658;23.374;2024-02-26T09:09:10;94137.28;;;17.51;45.07
27958;BME280;15295;42.658;23.374;2024-02-26T09:11:36;94142.25;;;17.43;45.17
27958;BME280;15295;42.658;23.374;2024-02-26T09:14:02;94143.03;;;17.44;45.33
27958;BME280;15295;42.658;23.374;2024-02-26T09:16:29;94138.91;;;17.48;45.19
27958;BME280;15295;42.658;23.374;2024-02-26T09:18:55;94135.06;;;17.46;45.48
27958;BME280;15295;42.658;23.374;2024-02-26T09:21:21;94127.75;;;17.52;45.63
27958;BME280;15295;42.658;23.374;2024-02-26T09:23:50;94126.59;;;17.62;45.29
27958;BME280;15295;42.658;23.374;2024-02-26T09:26:16;94133.81;;;17.68;45.34
27958;BME280;15295;42.658;23.374;2024-02-26T09:28:41;94125.53;;;17.68;44.25
27958;BME280;15295;42.658;23.374;2024-02-26T09:31:07;94114.03;;;17.70;43.67
27958;BME280;15295;42.658;23.374;2024-02-26T09:33:33;94122.72;;;17.90;43.81
27958;BME280;15295;42.658;23.374;2024-02-26T09:35:58;94124.00;;;17.98;43.39
27958;BME280;15295;42.658;23.374;2024-02-26T09:38:26;94124.66;;;18.20;43.25
27958;BME280;15295;42.658;23.374;2024-02-26T09:40:52;94127.09;;;18.09;42.93
27958;BME280;15295;42.658;23.374;2024-02-26T09:43:21;94111.16;;;18.13;42.95
27958;BME280;15295;42.658;23.374;2024-02-26T09:45:48;94120.19;;;18.05;43.05
27958;BME280;15295;42.658;23.374;2024-02-26T09:48:17;94121.00;;;18.23;43.21
27958;BME280;15295;42.658;23.374;2024-02-26T09:50:43;94118.78;;;18.00;42.68
27958;BME280;15295;42.658;23.374;2024-02-26T09:53:10;94135.44;;;17.79;42.75
27958;BME280;15295;42.658;23.374;2024-02-26T09:55:37;94123.31;;;17.85;43.09
27958;BME280;15295;42.658;23.374;2024-02-26T09:58:05;94119.88;;;17.72;42.92
27958;BME280;15295;42.658;23.374;2024-02-26T10:00:31;94120.38;;;17.80;43.17
27958;BME280;15295;42.658;23.374;2024-02-26T10:03:03;94111.66;;;17.90;43.19
27958;BME280;15295;42.658;23.374;2024-02-26T10:05:30;94123.44;;;17.82;43.40
27958;BME280;15295;42.658;23.374;2024-02-26T10:07:56;94124.47;;;17.44;43.43
27958;BME280;15295;42.658;23.374;2024-02-26T10:10:23;94131.97;;;17.44;43.74
27958;BME280;15295;42.658;23.374;2024-02-26T10:12:49;94117.38;;;17.65;43.27
27958;BME280;15295;42.658;23.374;2024-02-26T10:15:15;94124.16;;;17.64;43.40
27958;BME280;15295;42.658;23.374;2024-02-26T10:17:41;94109.97;;;17.53;43.11
27958;BME280;15295;42.658;23.374;2024-02-26T10:20:17;94105.03;;;17.79;42.79
27958;BME280;15295;42.658;23.374;2024-02-26T10:22:49;94106.88;;;17.82;42.68
27958;BME280;15295;42.658;23.374;2024-02-26T10:25:14;94106.03;;;17.63;43.30
27958;BME280;15295;42.658;23.374;2024-02-26T10:27:41;94110.81;;;17.71;43.15
27958;BME280;15295;42.658;23.374;2024-02-26T10:30:21;94100.03;;;18.04;42.20
27958;BME280;15295;42.658;23.374;2024-02-26T10:32:48;94085.59;;;18.00;42.37
27958;BME280;15295;42.658;23.374;2024-02-26T10:35:18;94105.13;;;17.66;42.63
27958;BME280;15295;42.658;23.374;2024-02-26T10:37:46;94078.63;;;17.87;42.02
27958;BME280;15295;42.658;23.374;2024-02-26T10:40:13;94079.16;;;18.03;42.05
27958;BME280;15295;42.658;23.374;2024-02-26T10:42:39;94090.44;;;17.78;42.23
27958;BME280;15295;42.658;23.374;2024-02-26T10:45:06;94078.16;;;17.88;42.38
27958;BME280;15295;42.658;23.374;2024-02-26T10:47:32;94070.66;;;17.89;42.27
27958;BME280;15295;42.658;23.374;2024-02-26T10:50:04;94066.56;;;18.02;42.01
27958;BME280;15295;42.658;23.374;2024-02-26T10:52:34;94067.97;;;18.25;41.38
27958;BME280;15295;42.658;23.374;2024-02-26T10:55:04;94073.69;;;18.30;41.39
27958;BME280;15295;42.658;23.374;2024-02-26T10:57:40;94054.41;;;18.00;41.78
27958;BME280;15295;42.658;23.374;2024-02-26T11:00:06;94067.53;;;18.17;41.27
27958;BME280;15295;42.658;23.374;2024-02-26T11:02:33;94064.16;;;18.40;40.92
27958;BME280;15295;42.658;23.374;2024-02-26T11:05:05;94073.06;;;18.35;41.13
27958;BME280;15295;42.658;23.374;2024-02-26T11:07:32;94068.34;;;18.54;40.99
27958;BME280;15295;42.658;23.374;2024-02-26T11:10:02;94068.22;;;18.58;40.96
27958;BME280;15295;42.658;23.374;2024-02-26T11:12:29;94078.47;;;18.39;41.02
27958;BME280;15295;42.658;23.374;2024-02-26T11:14:55;94089.56;;;18.48;40.46
27958;BME280;15295;42.658;23.374;2024-02-26T11:17:26;94064.88;;;18.14;41.20
27958;BME280;15295;42.658;23.374;2024-02-26T11:19:53;94066.47;;;18.42;40.79
27958;BME280;15295;42.658;23.374;2024-02-26T11:22:20;94066.06;;;18.71;40.43
27958;BME280;15295;42.658;23.374;2024-02-26T11:24:48;94067.13;;;18.64;40.29
27958;BME280;15295;42.658;23.374;2024-02-26T11:27:16;94053.13;;;18.59;40.37
27958;BME280;15295;42.658;23.374;2024-02-26T11:29:48;94062.53;;;18.79;40.21
27958;BME280;15295;42.658;23.374;2024-02-26T11:32:14;94071.59;;;18.71;39.88
27958;BME280;15295;42.658;23.374;2024-02-26T11:34:40;94055.59;;;18.75;39.72
27958;BME280;15295;42.658;23.374;2024-02-26T11:37:14;94075.88;;;18.63;40.14
27958;BME280;15295;42.658;23.374;2024-02-26T11:39:41;94066.22;;;18.49;40.13
27958;BME280;15295;42.658;23.374;2024-02-26T11:42:13;94046.31;;;18.41;40.40
27958;BME280;15295;42.658;23.374;2024-02-26T11:44:39;94052.38;;;18.67;39.80
27958;BME280;15295;42.658;23.374;2024-02-26T11:47:18;94060.84;;;18.82;39.55
27958;BME280;15295;42.658;23.374;2024-02-26T11:49:44;94054.69;;;18.69;39.27
27958;BME280;15295;42.658;23.374;2024-02-26T11:52:10;94053.59;;;18.57;39.27
27958;BME280;15295;42.658;23.374;2024-02-26T11:59:55;94050.03;;;18.38;39.47
27958;BME280;15295;42.658;23.374;2024-02-26T12:05:26;94048.69;;;18.61;39.09
27958;BME280;15295;42.658;23.374;2024-02-26T12:08:00;94048.22;;;18.54;39.36
27958;BME280;15295;42.658;23.374;2024-02-26T12:10:37;94051.28;;;18.83;39.09
27958;BME280;15295;42.658;23.374;2024-02-26T12:13:14;94056.22;;;18.88;38.27
27958;BME280;15295;42.658;23.374;2024-02-26T12:15:45;94064.66;;;19.02;38.19
27958;BME280;15295;42.658;23.374;2024-02-26T12:18:18;94047.88;;;19.06;38.46
27958;BME280;15295;42.658;23.374;2024-02-26T12:20:44;94058.16;;;19.05;37.91
27958;BME280;15295;42.658;23.374;2024-02-26T12:23:14;94054.66;;;18.96;38.31
27958;BME280;15295;42.658;23.374;2024-02-26T12:25:40;94051.22;;;19.19;37.80
27958;BME280;15295;42.658;23.374;2024-02-26T12:28:07;94051.59;;;18.94;38.06
27958;BME280;15295;42.658;23.374;2024-02-26T12:30:34;94046.97;;;19.00;38.08
27958;BME280;15295;42.658;23.374;2024-02-26T12:33:00;94056.03;;;18.91;38.18
27958;BME280;15295;42.658;23.374;2024-02-26T12:35:29;94057.44;;;19.05;37.73
27958;BME280;15295;42.658;23.374;2024-02-26T12:37:58;94058.91;;;19.33;37.41
27958;BME280;15295;42.658;23.374;2024-02-26T12:40:23;94055.78;;;19.58;37.31
27958;BME280;15295;42.658;23.374;2024-02-26T12:42:49;94054.78;;;19.79;36.50
27958;BME280;15295;42.658;23.374;2024-02-26T12:45:15;94056.81;;;20.02;36.10
27958;BME280;15295;42.658;23.374;2024-02-26T12:47:42;94058.16;;;19.74;35.98
27958;BME280;15295;42.658;23.374;2024-02-26T12:50:10;94042.25;;;19.93;35.89
27958;BME280;15295;42.658;23.374;2024-02-26T12:52:43;94029.78;;;19.88;35.61
27958;BME280;15295;42.658;23.374;2024-02-26T12:55:17;94047.63;;;19.87;35.83
27958;BME280;15295;42.658;23.374;2024-02-26T12:57:44;94050.44;;;19.78;36.18